sensor_id;sensor_type;location;lat;lon;timestamp;P1;durP1;ratioP1;P2;durP2;ratioP2
58685;SDS011;44465;53.206;-6.106;2023-12-29T00:00:55;1.60;;;0.90;;
58685;SDS011;44465;53.206;-6.106;2023-12-29T00:03:21;2.00;;;1.40;;
58685;SDS011;44465;53.206;-6.106;2023-12-29T00:05:46;1.67;;;0.98;;
58685;SDS011;44465;53.206;-6.106;2023-12-29T00:08:12;1.60;;;0.88;;
58685;SDS011;44465;53.206;-6.106;2023-12-29T00:10:37;1.98;;;0.85;;
58685;SDS011;44465;53.206;-6.106;2023-12-29T00:13:03;2.40;;;0.75;;
58685;SDS011;44465;53.206;-6.106;2023-12-29T00:15:29;3.17;;;0.95;;
58685;SDS011;44465;53.206;-6.106;2023-12-29T00:17:54;2.65;;;1.05;;
58685;SDS011;44465;53.206;-6.106;2023-12-29T00:20:20;2.28;;;1.08;;
58685;SDS011;44465;53.206;-6.106;2023-12-29T00:22:45;2.22;;;1.02;;
58685;SDS011;44465;53.206;-6.106;2023-12-29T00:25:11;3.80;;;1.08;;
58685;SDS011;44465;53.206;-6.106;2023-12-29T00:27:36;4.05;;;1.52;;
58685;SDS011;44465;53.206;-6.106;2023-12-29T00:30:02;2.00;;;0.90;;
58685;SDS011;44465;53.206;-6.106;2023-12-29T00:32:27;2.70;;;1.02;;
58685;SDS011;44465;53.206;-6.106;2023-12-29T00:34:53;2.88;;;1.27;;
58685;SDS011;44465;53.206;-6.106;2023-12-29T00:37:20;2.28;;;1.00;;
58685;SDS011;44465;53.206;-6.106;2023-12-29T00:39:46;1.40;;;0.98;;
58685;SDS011;44465;53.206;-6.106;2023-12-29T00:42:11;1.52;;;1.13;;
58685;SDS011;44465;53.206;-6.106;2023-12-29T00:44:38;3.92;;;1.08;;
58685;SDS011;44465;53.206;-6.106;2023-12-29T00:47:04;1.88;;;0.90;;
58685;SDS011;44465;53.206;-6.106;2023-12-29T00:49:29;3.55;;;0.95;;
58685;SDS011;44465;53.206;-6.106;2023-12-29T00:51:55;1.83;;;0.80;;
58685;SDS011;44465;53.206;-6.106;2023-12-29T00:54:21;4.72;;;1.02;;
58685;SDS011;44465;53.206;-6.106;2023-12-29T00:56:50;1.83;;;0.90;;
58685;SDS011;44465;53.206;-6.106;2023-12-29T00:59:17;1.50;;;0.82;;
58685;SDS011;44465;53.206;-6.106;2023-12-29T01:01:44;1.85;;;1.08;;
58685;SDS011;44465;53.206;-6.106;2023-12-29T01:04:10;2.13;;;0.90;;
58685;SDS011;44465;53.206;-6.106;2023-12-29T01:06:35;1.10;;;0.73;;
58685;SDS011;44465;53.206;-6.106;2023-12-29T01:09:01;1.38;;;0.68;;
58685;SDS011;44465;53.206;-6.106;2023-12-29T01:11:26;4.60;;;1.00;;
58685;SDS011;44465;53.206;-6.106;2023-12-29T01:13:52;2.83;;;1.10;;
58685;SDS011;44465;53.206;-6.106;2023-12-29T01:16:17;1.33;;;0.73;;
58685;SDS011;44465;53.206;-6.106;2023-12-29T01:18:43;2.22;;;0.93;;
58685;SDS011;44465;53.206;-6.106;2023-12-29T01:21:08;3.22;;;1.00;;
58685;SDS011;44465;53.206;-6.106;2023-12-29T01:23:34;2.20;;;0.88;;
58685;SDS011;44465;53.206;-6.106;2023-12-29T01:25:59;3.45;;;0.85;;
58685;SDS011;44465;53.206;-6.106;2023-12-29T01:28:25;2.28;;;0.93;;
58685;SDS011;44465;53.206;-6.106;2023-12-29T01:30:51;5.22;;;1.00;;
58685;SDS011;44465;53.206;-6.106;2023-12-29T01:33:16;2.30;;;0.70;;
58685;SDS011;44465;53.206;-6.106;2023-12-29T01:35:42;2.75;;;1.48;;
58685;SDS011;44465;53.206;-6.106;2023-12-29T01:38:07;2.30;;;1.00;;
58685;SDS011;44465;53.206;-6.106;2023-12-29T01:40:41;1.73;;;0.68;;
58685;SDS011;44465;53.206;-6.106;2023-12-29T01:43:08;1.83;;;1.08;;
58685;SDS011;44465;53.206;-6.106;2023-12-29T01:45:33;2.85;;;1.20;;
58685;SDS011;44465;53.206;-6.106;2023-12-29T01:47:59;1.50;;;0.95;;
58685;SDS011;44465;53.206;-6.106;2023-12-29T01:50:24;1.25;;;0.95;;
58685;SDS011;44465;53.206;-6.106;2023-12-29T01:52:50;2.38;;;0.80;;
58685;SDS011;44465;53.206;-6.106;2023-12-29T01:55:18;4.20;;;1.20;;
58685;SDS011;44465;53.206;-6.106;2023-12-29T01:57:46;1.75;;;1.00;;
58685;SDS011;44465;53.206;-6.106;2023-12-29T02:00:13;1.50;;;0.77;;
58685;SDS011;44465;53.206;-6.106;2023-12-29T02:02:42;1.80;;;0.60;;
58685;SDS011;44465;53.206;-6.106;2023-12-29T02:05:08;2.78;;;1.30;;
58685;SDS011;44465;53.206;-6.106;2023-12-29T02:07:38;1.42;;;0.70;;
58685;SDS011;44465;53.206;-6.106;2023-12-29T02:10:05;5.07;;;1.13;;
58685;SDS011;44465;53.206;-6.106;2023-12-29T02:12:31;2.35;;;1.05;;
58685;SDS011;44465;53.206;-6.106;2023-12-29T02:14:56;3.20;;;0.95;;
58685;SDS011;44465;53.206;-6.106;2023-12-29T02:17:22;3.13;;;1.20;;
58685;SDS011;44465;53.206;-6.106;2023-12-29T02:19:55;1.23;;;0.88;;
58685;SDS011;44465;53.206;-6.106;2023-12-29T02:22:22;2.78;;;0.95;;
58685;SDS011;44465;53.206;-6.106;2023-12-29T02:24:51;2.88;;;0.80;;
58685;SDS011;44465;53.206;-6.106;2023-12-29T02:33:07;3.08;;;1.17;;
58685;SDS011;44465;53.206;-6.106;2023-12-29T02:35:38;2.80;;;0.98;;
58685;SDS011;44465;53.206;-6.106;2023-12-29T02:38:06;2.42;;;0.90;;
58685;SDS011;44465;53.206;-6.106;2023-12-29T02:40:31;2.67;;;1.13;;
58685;SDS011;44465;53.206;-6.106;2023-12-29T02:42:57;5.30;;;1.10;;
58685;SDS011;44465;53.206;-6.106;2023-12-29T02:45:23;2.30;;;0.85;;
58685;SDS011;44465;53.206;-6.106;2023-12-29T02:47:49;2.08;;;1.00;;
58685;SDS011;44465;53.206;-6.106;2023-12-29T02:50:15;1.10;;;0.80;;
58685;SDS011;44465;53.206;-6.106;2023-12-29T02:52:41;3.78;;;1.35;;
58685;SDS011;44465;53.206;-6.106;2023-12-29T02:55:06;4.82;;;1.40;;
58685;SDS011;44465;53.206;-6.106;2023-12-29T02:57:32;3.17;;;1.08;;
58685;SDS011;44465;53.206;-6.106;2023-12-29T02:59:58;3.50;;;0.80;;
58685;SDS011;44465;53.206;-6.106;2023-12-29T03:02:23;2.35;;;0.82;;
58685;SDS011;44465;53.206;-6.106;2023-12-29T03:04:49;2.97;;;0.98;;
58685;SDS011;44465;53.206;-6.106;2023-12-29T03:07:15;2.47;;;0.68;;
58685;SDS011;44465;53.206;-6.106;2023-12-29T03:09:41;2.65;;;1.08;;
58685;SDS011;44465;53.206;-6.106;2023-12-29T03:12:07;1.17;;;0.60;;
58685;SDS011;44465;53.206;-6.106;2023-12-29T03:14:32;2.38;;;1.00;;
58685;SDS011;44465;53.206;-6.106;2023-12-29T03:16:58;5.32;;;1.45;;
58685;SDS011;44465;53.206;-6.106;2023-12-29T03:19:24;2.67;;;0.93;;
58685;SDS011;44465;53.206;-6.106;2023-12-29T03:21:50;2.30;;;0.90;;
58685;SDS011;44465;53.206;-6.106;2023-12-29T03:24:16;3.28;;;1.20;;
58685;SDS011;44465;53.206;-6.106;2023-12-29T03:26:41;2.05;;;1.02;;
58685;SDS011;44465;53.206;-6.106;2023-12-29T03:29:07;3.60;;;1.10;;
58685;SDS011;44465;53.206;-6.106;2023-12-29T03:31:33;2.35;;;0.70;;
58685;SDS011;44465;53.206;-6.106;2023-12-29T03:33:58;2.92;;;1.08;;
58685;SDS011;44465;53.206;-6.106;2023-12-29T03:36:24;2.53;;;0.93;;
58685;SDS011;44465;53.206;-6.106;2023-12-29T03:38:50;5.28;;;1.67;;
58685;SDS011;44465;53.206;-6.106;2023-12-29T03:41:15;2.05;;;0.93;;
58685;SDS011;44465;53.206;-6.106;2023-12-29T03:43:41;3.10;;;1.27;;
58685;SDS011;44465;53.206;-6.106;2023-12-29T03:46:16;2.72;;;0.88;;
58685;SDS011;44465;53.206;-6.106;2023-12-29T03:48:43;2.38;;;0.98;;
58685;SDS011;44465;53.206;-6.106;2023-12-29T03:51:08;1.92;;;0.77;;
58685;SDS011;44465;53.206;-6.106;2023-12-29T03:53:34;1.70;;;0.85;;
58685;SDS011;44465;53.206;-6.106;2023-12-29T03:56:03;2.38;;;1.00;;
58685;SDS011;44465;53.206;-6.106;2023-12-29T03:58:30;2.42;;;0.98;;
58685;SDS011;44465;53.206;-6.106;2023-12-29T04:00:56;2.55;;;0.85;;
58685;SDS011;44465;53.206;-6.106;2023-12-29T04:03:21;2.10;;;1.20;;
58685;SDS011;44465;53.206;-6.106;2023-12-29T04:05:47;2.80;;;1.00;;
58685;SDS011;44465;53.206;-6.106;2023-12-29T04:08:14;2.58;;;1.30;;
58685;SDS011;44465;53.206;-6.106;2023-12-29T04:14:10;2.95;;;1.00;;
58685;SDS011;44465;53.206;-6.106;2023-12-29T04:16:38;3.38;;;1.00;;
58685;SDS011;44465;53.206;-6.106;2023-12-29T04:19:04;2.17;;;0.95;;
58685;SDS011;44465;53.206;-6.106;2023-12-29T04:21:30;1.85;;;0.95;;
58685;SDS011;44465;53.206;-6.106;2023-12-29T04:23:57;3.70;;;1.50;;
58685;SDS011;44465;53.206;-6.106;2023-12-29T04:26:23;3.63;;;1.00;;
58685;SDS011;44465;53.206;-6.106;2023-12-29T04:28:49;3.53;;;1.27;;
58685;SDS011;44465;53.206;-6.106;2023-12-29T04:31:14;2.10;;;0.88;;
58685;SDS011;44465;53.206;-6.106;2023-12-29T04:33:40;2.45;;;0.90;;
58685;SDS011;44465;53.206;-6.106;2023-12-29T04:36:05;3.08;;;1.13;;
58685;SDS011;44465;53.206;-6.106;2023-12-29T04:38:31;2.60;;;0.80;;
58685;SDS011;44465;53.206;-6.106;2023-12-29T04:40:57;3.72;;;1.58;;
58685;SDS011;44465;53.206;-6.106;2023-12-29T04:43:22;4.10;;;1.02;;
58685;SDS011;44465;53.206;-6.106;2023-12-29T04:45:48;3.08;;;0.90;;
58685;SDS011;44465;53.206;-6.106;2023-12-29T04:48:13;4.38;;;1.30;;
58685;SDS011;44465;53.206;-6.106;2023-12-29T04:50:39;3.83;;;1.00;;
58685;SDS011;44465;53.206;-6.106;2023-12-29T04:53:05;3.70;;;1.13;;
58685;SDS011;44465;53.206;-6.106;2023-12-29T04:55:30;1.85;;;0.93;;
58685;SDS011;44465;53.206;-6.106;2023-12-29T04:57:56;1.58;;;0.80;;
58685;SDS011;44465;53.206;-6.106;2023-12-29T05:00:21;3.00;;;0.90;;
58685;SDS011;44465;53.206;-6.106;2023-12-29T05:02:47;3.85;;;1.33;;
58685;SDS011;44465;53.206;-6.106;2023-12-29T05:05:12;2.40;;;0.82;;
58685;SDS011;44465;53.206;-6.106;2023-12-29T05:07:38;3.50;;;0.80;;
58685;SDS011;44465;53.206;-6.106;2023-12-29T05:10:04;4.68;;;1.40;;
58685;SDS011;44465;53.206;-6.106;2023-12-29T05:12:30;2.05;;;1.15;;
58685;SDS011;44465;53.206;-6.106;2023-12-29T05:14:55;2.22;;;0.90;;
58685;SDS011;44465;53.206;-6.106;2023-12-29T05:17:21;2.22;;;0.70;;
58685;SDS011;44465;53.206;-6.106;2023-12-29T05:19:46;2.25;;;0.90;;
58685;SDS011;44465;53.206;-6.106;2023-12-29T05:22:12;3.50;;;1.10;;
58685;SDS011;44465;53.206;-6.106;2023-12-29T05:24:41;4.18;;;1.20;;
58685;SDS011;44465;53.206;-6.106;2023-12-29T05:27:07;2.90;;;1.33;;
58685;SDS011;44465;53.206;-6.106;2023-12-29T05:29:33;1.83;;;0.90;;
58685;SDS011;44465;53.206;-6.106;2023-12-29T05:31:58;3.33;;;1.27;;
58685;SDS011;44465;53.206;-6.106;2023-12-29T05:34:24;2.03;;;0.98;;
58685;SDS011;44465;53.206;-6.106;2023-12-29T05:36:49;2.17;;;0.98;;
58685;SDS011;44465;53.206;-6.106;2023-12-29T05:39:15;1.08;;;0.80;;
58685;SDS011;44465;53.206;-6.106;2023-12-29T05:41:40;1.70;;;0.98;;
58685;SDS011;44465;53.206;-6.106;2023-12-29T05:44:06;2.65;;;0.95;;
58685;SDS011;44465;53.206;-6.106;2023-12-29T05:46:31;1.92;;;0.70;;
58685;SDS011;44465;53.206;-6.106;2023-12-29T05:48:57;1.90;;;0.90;;
58685;SDS011;44465;53.206;-6.106;2023-12-29T05:51:23;2.88;;;0.98;;
58685;SDS011;44465;53.206;-6.106;2023-12-29T05:53:48;2.53;;;0.77;;
58685;SDS011;44465;53.206;-6.106;2023-12-29T05:56:14;2.17;;;1.20;;
58685;SDS011;44465;53.206;-6.106;2023-12-29T05:58:40;1.65;;;0.75;;
58685;SDS011;44465;53.206;-6.106;2023-12-29T06:01:07;2.40;;;1.10;;
58685;SDS011;44465;53.206;-6.106;2023-12-29T06:03:32;2.00;;;0.93;;
58685;SDS011;44465;53.206;-6.106;2023-12-29T06:05:58;3.17;;;0.93;;
58685;SDS011;44465;53.206;-6.106;2023-12-29T06:08:24;3.33;;;1.05;;
58685;SDS011;44465;53.206;-6.106;2023-12-29T06:10:49;2.60;;;1.15;;
58685;SDS011;44465;53.206;-6.106;2023-12-29T06:13:15;4.60;;;1.50;;
58685;SDS011;44465;53.206;-6.106;2023-12-29T06:15:40;4.32;;;1.02;;
58685;SDS011;44465;53.206;-6.106;2023-12-29T06:18:06;3.20;;;1.15;;
58685;SDS011;44465;53.206;-6.106;2023-12-29T06:20:31;2.80;;;0.82;;
58685;SDS011;44465;53.206;-6.106;2023-12-29T06:22:57;2.13;;;1.00;;
58685;SDS011;44465;53.206;-6.106;2023-12-29T06:25:22;2.13;;;0.80;;
58685;SDS011;44465;53.206;-6.106;2023-12-29T06:27:48;1.83;;;0.93;;
58685;SDS011;44465;53.206;-6.106;2023-12-29T06:30:14;3.40;;;0.90;;
58685;SDS011;44465;53.206;-6.106;2023-12-29T06:32:40;3.63;;;0.68;;
58685;SDS011;44465;53.206;-6.106;2023-12-29T06:35:06;2.80;;;0.95;;
58685;SDS011;44465;53.206;-6.106;2023-12-29T06:37:32;3.55;;;1.38;;
58685;SDS011;44465;53.206;-6.106;2023-12-29T06:39:58;3.60;;;1.38;;
58685;SDS011;44465;53.206;-6.106;2023-12-29T06:42:24;3.97;;;1.27;;
58685;SDS011;44465;53.206;-6.106;2023-12-29T06:44:50;0.98;;;0.70;;
58685;SDS011;44465;53.206;-6.106;2023-12-29T06:47:15;2.35;;;1.02;;
58685;SDS011;44465;53.206;-6.106;2023-12-29T06:49:41;2.92;;;1.00;;
58685;SDS011;44465;53.206;-6.106;2023-12-29T06:52:06;1.75;;;0.90;;
58685;SDS011;44465;53.206;-6.106;2023-12-29T06:54:33;1.05;;;0.65;;
58685;SDS011;44465;53.206;-6.106;2023-12-29T06:56:59;2.60;;;1.00;;
58685;SDS011;44465;53.206;-6.106;2023-12-29T06:59:25;1.17;;;0.60;;
58685;SDS011;44465;53.206;-6.106;2023-12-29T07:01:51;2.78;;;1.13;;
58685;SDS011;44465;53.206;-6.106;2023-12-29T07:04:16;1.75;;;1.00;;
58685;SDS011;44465;53.206;-6.106;2023-12-29T07:06:42;1.88;;;0.80;;
58685;SDS011;44465;53.206;-6.106;2023-12-29T07:09:08;2.42;;;0.70;;
58685;SDS011;44465;53.206;-6.106;2023-12-29T07:11:35;2.45;;;1.13;;
58685;SDS011;44465;53.206;-6.106;2023-12-29T07:14:01;2.50;;;0.98;;
58685;SDS011;44465;53.206;-6.106;2023-12-29T07:16:27;3.25;;;1.63;;
58685;SDS011;44465;53.206;-6.106;2023-12-29T07:18:52;3.70;;;1.55;;
58685;SDS011;44465;53.206;-6.106;2023-12-29T07:21:18;1.70;;;0.80;;
58685;SDS011;44465;53.206;-6.106;2023-12-29T07:23:44;1.55;;;0.50;;
58685;SDS011;44465;53.206;-6.106;2023-12-29T07:26:10;1.48;;;0.93;;
58685;SDS011;44465;53.206;-6.106;2023-12-29T07:28:35;1.38;;;0.77;;
58685;SDS011;44465;53.206;-6.106;2023-12-29T07:31:01;4.47;;;1.00;;
58685;SDS011;44465;53.206;-6.106;2023-12-29T07:33:27;2.40;;;0.80;;
58685;SDS011;44465;53.206;-6.106;2023-12-29T07:35:53;3.47;;;0.98;;
58685;SDS011;44465;53.206;-6.106;2023-12-29T07:38:18;0.75;;;0.30;;
58685;SDS011;44465;53.206;-6.106;2023-12-29T07:40:44;3.45;;;1.15;;
58685;SDS011;44465;53.206;-6.106;2023-12-29T07:43:10;0.93;;;0.50;;
58685;SDS011;44465;53.206;-6.106;2023-12-29T07:45:35;3.47;;;0.85;;
58685;SDS011;44465;53.206;-6.106;2023-12-29T07:48:02;2.65;;;1.38;;
58685;SDS011;44465;53.206;-6.106;2023-12-29T07:50:29;2.13;;;0.80;;
58685;SDS011;44465;53.206;-6.106;2023-12-29T07:52:54;3.13;;;0.80;;
58685;SDS011;44465;53.206;-6.106;2023-12-29T07:55:20;2.25;;;0.80;;
58685;SDS011;44465;53.206;-6.106;2023-12-29T07:57:46;1.60;;;0.65;;
58685;SDS011;44465;53.206;-6.106;2023-12-29T08:00:12;2.10;;;0.82;;
58685;SDS011;44465;53.206;-6.106;2023-12-29T08:05:05;0.93;;;0.70;;
58685;SDS011;44465;53.206;-6.106;2023-12-29T08:07:35;2.80;;;0.80;;
58685;SDS011;44465;53.206;-6.106;2023-12-29T08:10:03;1.60;;;0.60;;
58685;SDS011;44465;53.206;-6.106;2023-12-29T08:12:30;1.77;;;0.60;;
58685;SDS011;44465;53.206;-6.106;2023-12-29T08:14:55;1.30;;;0.82;;
58685;SDS011;44465;53.206;-6.106;2023-12-29T08:17:21;1.98;;;0.63;;
58685;SDS011;44465;53.206;-6.106;2023-12-29T08:19:47;2.33;;;0.80;;
58685;SDS011;44465;53.206;-6.106;2023-12-29T08:22:13;2.15;;;0.95;;
58685;SDS011;44465;53.206;-6.106;2023-12-29T08:24:42;1.20;;;0.80;;
58685;SDS011;44465;53.206;-6.106;2023-12-29T08:27:09;3.10;;;0.70;;
58685;SDS011;44465;53.206;-6.106;2023-12-29T08:29:35;1.50;;;0.55;;
58685;SDS011;44465;53.206;-6.106;2023-12-29T08:32:01;1.08;;;0.82;;
58685;SDS011;44465;53.206;-6.106;2023-12-29T08:34:30;1.45;;;0.85;;
58685;SDS011;44465;53.206;-6.106;2023-12-29T08:36:56;1.50;;;0.70;;
58685;SDS011;44465;53.206;-6.106;2023-12-29T08:39:21;2.30;;;0.90;;
58685;SDS011;44465;53.206;-6.106;2023-12-29T08:41:47;3.42;;;0.90;;
58685;SDS011;44465;53.206;-6.106;2023-12-29T08:44:14;2.30;;;1.00;;
58685;SDS011;44465;53.206;-6.106;2023-12-29T08:46:40;2.88;;;0.70;;
58685;SDS011;44465;53.206;-6.106;2023-12-29T08:49:06;3.65;;;0.90;;
58685;SDS011;44465;53.206;-6.106;2023-12-29T08:51:32;6.38;;;0.95;;
58685;SDS011;44465;53.206;-6.106;2023-12-29T08:53:58;3.88;;;1.13;;
58685;SDS011;44465;53.206;-6.106;2023-12-29T08:56:24;3.80;;;1.10;;
58685;SDS011;44465;53.206;-6.106;2023-12-29T08:58:49;11.27;;;8.60;;
58685;SDS011;44465;53.206;-6.106;2023-12-29T09:01:15;23.50;;;18.80;;
58685;SDS011;44465;53.206;-6.106;2023-12-29T09:03:40;22.75;;;19.13;;
58685;SDS011;44465;53.206;-6.106;2023-12-29T09:06:06;26.73;;;19.63;;
58685;SDS011;44465;53.206;-6.106;2023-12-29T09:08:34;23.95;;;17.88;;
58685;SDS011;44465;53.206;-6.106;2023-12-29T09:11:00;18.17;;;15.13;;
58685;SDS011;44465;53.206;-6.106;2023-12-29T09:13:25;23.40;;;16.35;;
58685;SDS011;44465;53.206;-6.106;2023-12-29T09:15:52;22.73;;;17.05;;
58685;SDS011;44465;53.206;-6.106;2023-12-29T09:18:19;18.67;;;14.55;;
58685;SDS011;44465;53.206;-6.106;2023-12-29T09:20:44;19.98;;;14.27;;
58685;SDS011;44465;53.206;-6.106;2023-12-29T09:23:10;20.10;;;13.57;;
58685;SDS011;44465;53.206;-6.106;2023-12-29T09:25:36;16.60;;;11.75;;
58685;SDS011;44465;53.206;-6.106;2023-12-29T09:28:02;20.67;;;12.68;;
58685;SDS011;44465;53.206;-6.106;2023-12-29T09:30:28;19.80;;;13.98;;
58685;SDS011;44465;53.206;-6.106;2023-12-29T09:32:53;19.27;;;13.32;;
58685;SDS011;44465;53.206;-6.106;2023-12-29T09:35:19;17.10;;;11.95;;
58685;SDS011;44465;53.206;-6.106;2023-12-29T09:37:47;18.38;;;11.02;;
58685;SDS011;44465;53.206;-6.106;2023-12-29T09:40:14;19.67;;;11.05;;
58685;SDS011;44465;53.206;-6.106;2023-12-29T09:42:40;20.77;;;10.45;;
58685;SDS011;44465;53.206;-6.106;2023-12-29T09:45:11;18.52;;;10.20;;
58685;SDS011;44465;53.206;-6.106;2023-12-29T09:47:42;16.40;;;9.85;;
58685;SDS011;44465;53.206;-6.106;2023-12-29T09:50:12;14.57;;;8.50;;
58685;SDS011;44465;53.206;-6.106;2023-12-29T09:52:38;12.00;;;7.95;;
58685;SDS011;44465;53.206;-6.106;2023-12-29T09:55:09;17.05;;;8.23;;
58685;SDS011;44465;53.206;-6.106;2023-12-29T09:57:38;12.48;;;8.23;;
58685;SDS011;44465;53.206;-6.106;2023-12-29T10:00:05;11.70;;;7.35;;
58685;SDS011;44465;53.206;-6.106;2023-12-29T10:02:38;13.23;;;7.38;;
58685;SDS011;44465;53.206;-6.106;2023-12-29T10:05:04;9.00;;;6.55;;
58685;SDS011;44465;53.206;-6.106;2023-12-29T10:07:39;11.20;;;6.25;;
58685;SDS011;44465;53.206;-6.106;2023-12-29T10:10:09;8.98;;;6.13;;
58685;SDS011;44465;53.206;-6.106;2023-12-29T10:12:42;9.00;;;6.07;;
58685;SDS011;44465;53.206;-6.106;2023-12-29T10:20:58;7.13;;;5.20;;
58685;SDS011;44465;53.206;-6.106;2023-12-29T10:26:05;10.65;;;5.05;;
58685;SDS011;44465;53.206;-6.106;2023-12-29T10:28:35;10.38;;;4.95;;
58685;SDS011;44465;53.206;-6.106;2023-12-29T10:31:01;7.88;;;4.35;;
58685;SDS011;44465;53.206;-6.106;2023-12-29T10:33:29;7.20;;;4.07;;
58685;SDS011;44465;53.206;-6.106;2023-12-29T10:38:27;7.25;;;4.35;;
58685;SDS011;44465;53.206;-6.106;2023-12-29T10:40:53;8.02;;;3.90;;
58685;SDS011;44465;53.206;-6.106;2023-12-29T10:43:23;10.40;;;3.97;;
58685;SDS011;44465;53.206;-6.106;2023-12-29T10:45:49;4.85;;;3.75;;
58685;SDS011;44465;53.206;-6.106;2023-12-29T10:48:21;5.35;;;3.28;;
58685;SDS011;44465;53.206;-6.106;2023-12-29T10:50:49;6.30;;;3.63;;
58685;SDS011;44465;53.206;-6.106;2023-12-29T10:53:14;11.75;;;3.53;;
58685;SDS011;44465;53.206;-6.106;2023-12-29T10:55:43;9.23;;;3.50;;
58685;SDS011;44465;53.206;-6.106;2023-12-29T10:58:09;4.78;;;3.50;;
58685;SDS011;44465;53.206;-6.106;2023-12-29T11:00:34;5.45;;;3.25;;
58685;SDS011;44465;53.206;-6.106;2023-12-29T11:03:00;6.72;;;3.00;;
58685;SDS011;44465;53.206;-6.106;2023-12-29T11:05:26;6.10;;;3.45;;
58685;SDS011;44465;53.206;-6.106;2023-12-29T11:07:53;6.30;;;2.70;;
58685;SDS011;44465;53.206;-6.106;2023-12-29T11:10:20;7.20;;;3.47;;
58685;SDS011;44465;53.206;-6.106;2023-12-29T11:12:47;11.17;;;3.10;;
58685;SDS011;44465;53.206;-6.106;2023-12-29T11:15:13;7.00;;;3.22;;
58685;SDS011;44465;53.206;-6.106;2023-12-29T11:17:41;9.77;;;2.83;;
58685;SDS011;44465;53.206;-6.106;2023-12-29T11:20:14;6.60;;;3.60;;
58685;SDS011;44465;53.206;-6.106;2023-12-29T11:22:41;4.55;;;3.00;;
58685;SDS011;44465;53.206;-6.106;2023-12-29T11:25:08;10.15;;;3.20;;
58685;SDS011;44465;53.206;-6.106;2023-12-29T11:27:34;9.48;;;3.17;;
58685;SDS011;44465;53.206;-6.106;2023-12-29T11:30:01;8.35;;;2.88;;
58685;SDS011;44465;53.206;-6.106;2023-12-29T11:35:11;8.35;;;3.30;;
58685;SDS011;44465;53.206;-6.106;2023-12-29T11:37:46;8.77;;;3.25;;
58685;SDS011;44465;53.206;-6.106;2023-12-29T11:40:22;7.88;;;3.17;;
58685;SDS011;44465;53.206;-6.106;2023-12-29T11:42:53;9.98;;;2.75;;
58685;SDS011;44465;53.206;-6.106;2023-12-29T11:45:28;15.40;;;4.25;;
58685;SDS011;44465;53.206;-6.106;2023-12-29T11:47:57;6.13;;;2.55;;
58685;SDS011;44465;53.206;-6.106;2023-12-29T11:50:31;10.23;;;2.58;;
58685;SDS011;44465;53.206;-6.106;2023-12-29T11:52:58;7.60;;;3.00;;
58685;SDS011;44465;53.206;-6.106;2023-12-29T11:55:31;6.13;;;2.83;;
58685;SDS011;44465;53.206;-6.106;2023-12-29T11:58:00;4.97;;;2.70;;
58685;SDS011;44465;53.206;-6.106;2023-12-29T12:00:45;5.63;;;2.80;;
58685;SDS011;44465;53.206;-6.106;2023-12-29T12:03:24;8.85;;;3.15;;
58685;SDS011;44465;53.206;-6.106;2023-12-29T12:05:52;11.30;;;2.67;;
58685;SDS011;44465;53.206;-6.106;2023-12-29T12:13:57;8.48;;;2.20;;
58685;SDS011;44465;53.206;-6.106;2023-12-29T12:19:10;7.82;;;2.45;;
58685;SDS011;44465;53.206;-6.106;2023-12-29T12:21:36;10.95;;;2.33;;
58685;SDS011;44465;53.206;-6.106;2023-12-29T12:24:06;6.38;;;2.10;;
58685;SDS011;44465;53.206;-6.106;2023-12-29T12:26:32;8.27;;;2.58;;
58685;SDS011;44465;53.206;-6.106;2023-12-29T12:28:59;4.55;;;2.15;;
58685;SDS011;44465;53.206;-6.106;2023-12-29T12:31:25;7.25;;;2.10;;
58685;SDS011;44465;53.206;-6.106;2023-12-29T12:33:55;9.00;;;2.08;;
58685;SDS011;44465;53.206;-6.106;2023-12-29T12:36:21;5.57;;;1.85;;
58685;SDS011;44465;53.206;-6.106;2023-12-29T12:38:51;6.72;;;2.00;;
58685;SDS011;44465;53.206;-6.106;2023-12-29T12:41:20;6.90;;;1.50;;
58685;SDS011;44465;53.206;-6.106;2023-12-29T12:46:22;12.52;;;2.13;;
58685;SDS011;44465;53.206;-6.106;2023-12-29T12:48:51;6.75;;;1.95;;
58685;SDS011;44465;53.206;-6.106;2023-12-29T12:51:19;3.60;;;1.60;;
58685;SDS011;44465;53.206;-6.106;2023-12-29T12:53:45;8.38;;;2.13;;
58685;SDS011;44465;53.206;-6.106;2023-12-29T12:56:12;4.10;;;1.67;;
58685;SDS011;44465;53.206;-6.106;2023-12-29T12:58:39;7.60;;;2.65;;
58685;SDS011;44465;53.206;-6.106;2023-12-29T13:01:05;9.80;;;1.98;;
58685;SDS011;44465;53.206;-6.106;2023-12-29T13:03:32;6.65;;;2.00;;
58685;SDS011;44465;53.206;-6.106;2023-12-29T13:05:58;5.57;;;1.63;;
58685;SDS011;44465;53.206;-6.106;2023-12-29T13:08:24;4.53;;;1.92;;
58685;SDS011;44465;53.206;-6.106;2023-12-29T13:10:51;3.22;;;1.58;;
58685;SDS011;44465;53.206;-6.106;2023-12-29T13:13:17;5.03;;;1.73;;
58685;SDS011;44465;53.206;-6.106;2023-12-29T13:15:47;7.07;;;1.80;;
58685;SDS011;44465;53.206;-6.106;2023-12-29T13:18:14;14.35;;;1.67;;
58685;SDS011;44465;53.206;-6.106;2023-12-29T13:20:43;9.45;;;1.88;;
58685;SDS011;44465;53.206;-6.106;2023-12-29T13:23:12;4.72;;;1.40;;
58685;SDS011;44465;53.206;-6.106;2023-12-29T13:25:39;3.53;;;1.55;;
58685;SDS011;44465;53.206;-6.106;2023-12-29T13:28:06;5.20;;;1.48;;
58685;SDS011;44465;53.206;-6.106;2023-12-29T13:30:32;4.80;;;1.60;;
58685;SDS011;44465;53.206;-6.106;2023-12-29T13:32:59;2.75;;;1.27;;
58685;SDS011;44465;53.206;-6.106;2023-12-29T13:35:36;4.90;;;1.40;;
58685;SDS011;44465;53.206;-6.106;2023-12-29T13:38:15;5.85;;;1.63;;
58685;SDS011;44465;53.206;-6.106;2023-12-29T13:40:54;4.18;;;1.60;;
58685;SDS011;44465;53.206;-6.106;2023-12-29T13:43:23;2.97;;;1.40;;
58685;SDS011;44465;53.206;-6.106;2023-12-29T13:45:49;3.15;;;1.52;;
58685;SDS011;44465;53.206;-6.106;2023-12-29T13:48:16;6.82;;;1.70;;
58685;SDS011;44465;53.206;-6.106;2023-12-29T13:50:45;3.42;;;1.80;;
58685;SDS011;44465;53.206;-6.106;2023-12-29T13:53:18;3.33;;;1.10;;
58685;SDS011;44465;53.206;-6.106;2023-12-29T13:55:44;2.45;;;1.58;;
58685;SDS011;44465;53.206;-6.106;2023-12-29T13:58:10;2.90;;;1.33;;
58685;SDS011;44465;53.206;-6.106;2023-12-29T14:00:36;4.20;;;1.40;;
58685;SDS011;44465;53.206;-6.106;2023-12-29T14:03:05;2.92;;;1.70;;
58685;SDS011;44465;53.206;-6.106;2023-12-29T14:05:35;2.25;;;1.20;;
58685;SDS011;44465;53.206;-6.106;2023-12-29T14:10:35;2.40;;;1.35;;
58685;SDS011;44465;53.206;-6.106;2023-12-29T14:13:08;1.88;;;1.08;;
58685;SDS011;44465;53.206;-6.106;2023-12-29T14:15:37;1.70;;;1.08;;
58685;SDS011;44465;53.206;-6.106;2023-12-29T14:18:06;2.13;;;1.27;;
58685;SDS011;44465;53.206;-6.106;2023-12-29T14:20:34;3.08;;;1.45;;
58685;SDS011;44465;53.206;-6.106;2023-12-29T14:23:01;1.67;;;1.13;;
58685;SDS011;44465;53.206;-6.106;2023-12-29T14:25:28;1.17;;;0.88;;
58685;SDS011;44465;53.206;-6.106;2023-12-29T14:27:53;2.38;;;1.10;;
58685;SDS011;44465;53.206;-6.106;2023-12-29T14:30:19;1.38;;;0.93;;
58685;SDS011;44465;53.206;-6.106;2023-12-29T14:32:45;3.67;;;1.00;;
58685;SDS011;44465;53.206;-6.106;2023-12-29T14:35:11;1.13;;;0.88;;
58685;SDS011;44465;53.206;-6.106;2023-12-29T14:37:37;5.35;;;1.20;;
58685;SDS011;44465;53.206;-6.106;2023-12-29T14:40:03;1.85;;;1.10;;
58685;SDS011;44465;53.206;-6.106;2023-12-29T14:42:30;1.90;;;1.17;;
58685;SDS011;44465;53.206;-6.106;2023-12-29T14:44:55;1.63;;;0.98;;
58685;SDS011;44465;53.206;-6.106;2023-12-29T14:47:21;0.90;;;0.90;;
58685;SDS011;44465;53.206;-6.106;2023-12-29T14:49:47;2.67;;;1.00;;
58685;SDS011;44465;53.206;-6.106;2023-12-29T14:52:12;1.27;;;0.80;;
58685;SDS011;44465;53.206;-6.106;2023-12-29T14:54:38;1.95;;;1.20;;
58685;SDS011;44465;53.206;-6.106;2023-12-29T14:57:05;0.90;;;0.77;;
58685;SDS011;44465;53.206;-6.106;2023-12-29T14:59:30;1.67;;;1.00;;
58685;SDS011;44465;53.206;-6.106;2023-12-29T15:01:56;0.90;;;0.88;;
58685;SDS011;44465;53.206;-6.106;2023-12-29T15:04:21;1.20;;;1.00;;
58685;SDS011;44465;53.206;-6.106;2023-12-29T15:06:47;1.20;;;0.90;;
58685;SDS011;44465;53.206;-6.106;2023-12-29T15:09:12;1.42;;;0.88;;